Time;durP1;ratioP1;P1;durP2;ratioP2;P2;SDS_P1;SDS_P2;PMS_P1;PMS_P2;Temp;Humidity;BMP_temperature;BMP_pressure;BME280_temperature;BME280_humidity;BME280_pressure;Samples;Min_cycle;Max_cycle;Signal;HPM_P1;HPM_P2
2021/05/28 00:00:28;;;;;;;12.03;4.33;;;8.80;94.00;;;;;;5053728;28;20396;-80
2021/05/28 00:02:54;;;;;;;9.73;3.83;;;8.80;94.00;;;;;;5053869;28;20021;-73
2021/05/28 00:05:20;;;;;;;13.40;4.63;;;8.80;94.00;;;;;;5020653;28;20029;-79
2021/05/28 00:07:46;;;;;;;9.00;4.63;;;8.70;94.00;;;;;;5053670;28;20029;-79
2021/05/28 00:10:12;;;;;;;10.10;3.80;;;8.60;94.10;;;;;;5053248;28;20029;-73
2021/05/28 00:12:38;;;;;;;8.00;4.70;;;8.70;94.10;;;;;;5037005;28;20479;-73
2021/05/28 00:15:07;;;;;;;13.00;4.60;;;8.70;94.20;;;;;;5054055;28;20025;-73
2021/05/28 00:17:32;;;;;;;11.07;4.63;;;8.70;94.30;;;;;;5054757;28;20064;-78
2021/05/28 00:19:58;;;;;;;13.57;5.00;;;8.60;94.30;;;;;;5054605;28;20021;-78
2021/05/28 00:22:24;;;;;;;14.33;5.10;;;8.70;94.40;;;;;;5054326;28;20075;-78
2021/05/28 00:24:49;;;;;;;11.27;5.80;;;8.70;94.40;;;;;;5053476;28;20410;-73
2021/05/28 00:27:15;;;;;;;11.27;5.33;;;8.80;94.50;;;;;;5053414;28;20041;-73
2021/05/28 00:29:40;;;;;;;9.07;4.97;;;8.70;94.50;;;;;;5054220;28;20031;-72
2021/05/28 00:32:06;;;;;;;12.17;5.90;;;8.80;94.50;;;;;;5053190;28;20035;-79
2021/05/28 00:34:32;;;;;;;11.67;5.30;;;8.70;94.50;;;;;;5053499;28;20476;-80
2021/05/28 00:36:58;;;;;;;11.63;5.80;;;8.70;94.60;;;;;;5054202;28;20080;-80
2021/05/28 00:39:23;;;;;;;13.80;5.60;;;8.80;94.60;;;;;;5053434;28;20028;-80
2021/05/28 00:41:49;;;;;;;14.30;6.10;;;8.70;94.60;;;;;;5054489;28;20461;-73
2021/05/28 00:44:21;;;;;;;11.87;5.70;;;8.60;94.60;;;;;;5053396;28;20068;-73
2021/05/28 00:46:46;;;;;;;18.27;6.37;;;8.70;94.60;;;;;;5052813;28;20029;-73
2021/05/28 00:49:12;;;;;;;10.00;5.53;;;8.70;94.70;;;;;;5053141;28;20104;-73
2021/05/28 00:51:38;;;;;;;13.47;5.70;;;8.50;94.60;;;;;;5054338;28;20094;-73
2021/05/28 00:54:04;;;;;;;11.13;5.00;;;8.60;94.70;;;;;;5052865;28;20025;-73
2021/05/28 00:56:30;;;;;;;12.43;5.10;;;8.60;94.70;;;;;;5054244;28;20372;-73
2021/05/28 00:59:01;;;;;;;13.67;5.07;;;8.60;94.70;;;;;;5052702;28;20029;-73
2021/05/28 01:01:27;;;;;;;12.67;6.00;;;8.60;94.80;;;;;;5053979;28;20039;-73
2021/05/28 01:03:53;;;;;;;13.80;5.77;;;8.60;94.80;;;;;;5052865;28;20021;-73
2021/05/28 01:06:18;;;;;;;17.57;6.10;;;8.60;94.80;;;;;;5053007;28;20377;-73
2021/05/28 01:08:44;;;;;;;12.20;5.57;;;8.60;94.80;;;;;;5052556;28;20086;-79
2021/05/28 01:11:10;;;;;;;11.27;5.03;;;8.50;94.80;;;;;;5052734;28;20124;-79
2021/05/28 01:13:36;;;;;;;11.23;4.90;;;8.60;94.90;;;;;;5053581;28;20032;-79
2021/05/28 01:16:02;;;;;;;11.10;5.40;;;8.60;94.90;;;;;;5019379;28;20029;-73
2021/05/28 01:18:27;;;;;;;10.53;5.90;;;8.50;94.90;;;;;;5035981;28;20468;-73
2021/05/28 01:20:53;;;;;;;14.43;7.10;;;8.50;94.90;;;;;;5019151;28;20021;-73
2021/05/28 01:23:19;;;;;;;15.83;7.17;;;8.50;95.00;;;;;;5053437;28;20090;-73
2021/05/28 01:25:45;;;;;;;13.20;6.50;;;8.50;95.00;;;;;;5035919;28;20037;-73
2021/05/28 01:28:11;;;;;;;10.57;5.07;;;8.50;95.00;;;;;;5035706;28;20078;-73
2021/05/28 01:30:37;;;;;;;9.47;5.47;;;8.50;95.00;;;;;;5035965;28;20036;-73
2021/05/28 01:33:03;;;;;;;9.83;5.90;;;8.50;95.00;;;;;;5036181;28;20040;-73
2021/05/28 01:35:28;;;;;;;13.80;5.57;;;8.40;95.00;;;;;;5052491;28;20029;-74
2021/05/28 01:37:54;;;;;;;12.57;5.87;;;8.40;95.00;;;;;;5052304;28;20021;-73
2021/05/28 01:40:21;;;;;;;12.90;6.17;;;8.40;95.00;;;;;;5035744;28;20028;-73
2021/05/28 01:42:47;;;;;;;13.23;5.47;;;8.40;95.00;;;;;;5053366;28;20029;-74
2021/05/28 01:45:14;;;;;;;15.67;6.27;;;8.40;95.00;;;;;;5035555;28;20036;-73
2021/05/28 01:47:40;;;;;;;13.60;6.20;;;8.40;95.10;;;;;;5053367;28;20087;-73
2021/05/28 01:50:10;;;;;;;11.33;6.10;;;8.40;95.10;;;;;;5052298;28;20469;-73
2021/05/28 01:52:35;;;;;;;12.13;6.13;;;8.30;95.20;;;;;;5053497;28;20029;-73
2021/05/28 01:55:02;;;;;;;12.83;6.30;;;8.30;95.20;;;;;;5052368;28;20120;-73
2021/05/28 01:57:27;;;;;;;10.80;6.00;;;8.40;95.30;;;;;;5051665;28;20108;-72
2021/05/28 01:59:53;;;;;;;13.90;7.00;;;8.30;95.40;;;;;;5051944;28;20104;-73
2021/05/28 02:02:19;;;;;;;14.20;7.23;;;8.40;95.50;;;;;;5060784;28;20029;-73
2021/05/28 02:04:45;;;;;;;19.07;8.50;;;8.40;95.50;;;;;;5068701;28;20012;-78
2021/05/28 02:07:11;;;;;;;16.30;8.53;;;8.50;95.60;;;;;;5054751;28;20029;-79
2021/05/28 02:09:37;;;;;;;16.67;8.63;;;8.60;95.60;;;;;;5071761;28;20499;-78
2021/05/28 02:12:03;;;;;;;21.03;8.97;;;8.60;95.70;;;;;;5071672;28;20468;-79
2021/05/28 02:14:29;;;;;;;19.20;8.10;;;8.60;95.70;;;;;;5055079;28;20029;-78
2021/05/28 02:16:56;;;;;;;15.57;8.73;;;8.60;95.60;;;;;;5071640;28;20059;-80
2021/05/28 02:19:21;;;;;;;16.60;8.70;;;8.60;95.60;;;;;;5071892;28;20025;-78
2021/05/28 02:21:49;;;;;;;17.73;9.37;;;8.60;95.70;;;;;;5071613;28;20031;-78
2021/05/28 02:24:15;;;;;;;13.73;7.47;;;8.60;95.70;;;;;;5072747;28;20062;-77
2021/05/28 02:26:44;;;;;;;20.97;9.27;;;8.60;95.70;;;;;;5073076;28;20388;-78
2021/05/28 02:29:10;;;;;;;21.00;9.07;;;8.70;95.70;;;;;;5071599;28;20017;-78
2021/05/28 02:31:36;;;;;;;16.07;8.50;;;8.70;95.70;;;;;;5054871;28;20025;-73
2021/05/28 02:34:02;;;;;;;16.60;8.13;;;8.70;95.70;;;;;;5075600;28;20426;-73
2021/05/28 02:36:28;;;;;;;17.90;8.60;;;8.70;95.60;;;;;;5075170;28;20104;-73
2021/05/28 02:38:53;;;;;;;15.30;7.37;;;8.80;95.60;;;;;;5075097;28;20020;-73
2021/05/28 02:41:19;;;;;;;13.70;7.33;;;8.60;95.60;;;;;;5075065;28;20040;-73
2021/05/28 02:43:45;;;;;;;15.40;7.67;;;8.60;95.70;;;;;;5074893;28;20021;-73
2021/05/28 02:46:10;;;;;;;14.10;7.17;;;8.60;95.60;;;;;;5075080;28;20112;-73
2021/05/28 02:48:36;;;;;;;13.63;7.07;;;8.60;95.50;;;;;;5074826;28;20120;-73
2021/05/28 02:51:02;;;;;;;12.43;7.50;;;8.60;95.50;;;;;;5076196;28;20032;-73
2021/05/28 02:53:33;;;;;;;12.97;6.97;;;8.60;95.50;;;;;;5041461;28;20119;-73
2021/05/28 02:55:59;;;;;;;15.13;7.23;;;8.60;95.50;;;;;;5075111;28;20029;-73
2021/05/28 02:58:25;;;;;;;19.27;7.33;;;8.60;95.80;;;;;;5076040;28;20642;-74
2021/05/28 03:00:51;;;;;;;17.97;7.93;;;8.60;95.50;;;;;;5041810;28;20112;-73
2021/05/28 03:03:16;;;;;;;15.20;7.23;;;8.50;95.60;;;;;;5058071;28;20021;-74
2021/05/28 03:05:42;;;;;;;23.07;7.30;;;8.60;95.60;;;;;;5041386;28;20205;-73
2021/05/28 03:08:07;;;;;;;16.60;8.30;;;8.60;95.70;;;;;;5057927;28;20476;-73
2021/05/28 03:10:33;;;;;;;19.60;7.73;;;8.60;95.70;;;;;;5041236;28;20384;-73
2021/05/28 03:12:58;;;;;;;16.27;7.70;;;8.70;95.80;;;;;;5074423;28;20039;-74
2021/05/28 03:15:24;;;;;;;15.57;8.07;;;8.60;95.80;;;;;;5074418;28;20035;-73
2021/05/28 03:17:50;;;;;;;19.97;8.67;;;8.60;95.80;;;;;;5074544;28;20059;-73
2021/05/28 03:20:19;;;;;;;22.43;9.10;;;8.70;95.80;;;;;;5041253;28;20487;-73
2021/05/28 03:22:45;;;;;;;17.70;8.73;;;8.60;95.80;;;;;;5058160;28;20119;-73
2021/05/28 03:25:13;;;;;;;15.80;8.67;;;8.70;95.80;;;;;;5075583;28;20433;-73
2021/05/28 03:27:39;;;;;;;15.60;8.33;;;8.70;95.90;;;;;;5074187;28;20040;-74
2021/05/28 03:30:07;;;;;;;19.30;9.50;;;8.70;95.90;;;;;;5075570;28;20043;-78
2021/05/28 03:32:32;;;;;;;15.67;8.63;;;8.70;96.00;;;;;;5075360;28;20036;-78
2021/05/28 03:34:58;;;;;;;16.03;8.83;;;8.80;96.00;;;;;;5074538;28;20036;-78
2021/05/28 03:37:25;;;;;;;14.40;8.63;;;8.80;95.90;;;;;;5057335;28;20036;-79
2021/05/28 03:39:51;;;;;;;20.83;9.60;;;8.80;96.20;;;;;;5074166;28;20032;-78
2021/05/28 03:42:18;;;;;;;17.10;9.17;;;8.90;96.00;;;;;;5075228;28;20024;-78
2021/05/28 03:44:44;;;;;;;17.83;9.07;;;8.90;96.00;;;;;;5074672;28;20017;-78
2021/05/28 03:47:10;;;;;;;18.23;9.37;;;8.90;96.00;;;;;;5075226;28;20121;-78
2021/05/28 03:49:37;;;;;;;25.20;9.67;;;8.90;95.90;;;;;;5075182;28;20115;-78
2021/05/28 03:52:03;;;;;;;24.20;8.20;;;8.90;96.00;;;;;;5073874;28;20029;-74
2021/05/28 03:54:28;;;;;;;21.77;9.33;;;8.90;96.00;;;;;;5057250;28;20494;-73
2021/05/28 03:56:54;;;;;;;15.83;8.90;;;8.90;96.00;;;;;;5073600;28;20086;-73
2021/05/28 03:59:20;;;;;;;19.97;10.33;;;8.90;96.00;;;;;;5073581;28;20082;-74
2021/05/28 04:01:45;;;;;;;22.73;9.87;;;9.00;96.00;;;;;;5035152;28;20040;-78
2021/05/28 04:04:11;;;;;;;18.37;10.07;;;9.00;96.00;;;;;;5036408;28;20550;-79
2021/05/28 04:06:37;;;;;;;19.47;10.43;;;9.00;96.00;;;;;;5069073;28;20036;-78
2021/05/28 04:09:03;;;;;;;17.47;9.87;;;9.00;95.90;;;;;;5053384;28;20078;-78
2021/05/28 04:11:29;;;;;;;22.20;9.00;;;9.10;95.90;;;;;;5036813;28;20120;-78
2021/05/28 04:13:54;;;;;;;29.90;10.10;;;9.00;95.80;;;;;;5053543;28;20108;-78
2021/05/28 04:16:20;;;;;;;36.13;9.80;;;9.00;95.80;;;;;;5035835;28;20068;-74
2021/05/28 04:18:46;;;;;;;20.10;9.33;;;9.00;95.80;;;;;;5059775;28;20039;-78
2021/05/28 04:21:12;;;;;;;21.37;8.93;;;9.00;95.80;;;;;;5072070;28;20028;-79
2021/05/28 04:23:38;;;;;;;22.20;8.10;;;9.00;95.80;;;;;;5072046;28;20083;-79
2021/05/28 04:26:03;;;;;;;23.30;8.87;;;9.00;95.80;;;;;;5073029;28;20408;-79
2021/05/28 04:28:30;;;;;;;14.43;8.47;;;9.10;95.80;;;;;;5056604;28;20036;-78
2021/05/28 04:30:56;;;;;;;17.27;8.67;;;9.10;96.10;;;;;;5073070;28;20119;-79
2021/05/28 04:33:23;;;;;;;23.80;8.60;;;9.10;95.90;;;;;;5051008;28;20025;-80
2021/05/28 04:35:48;;;;;;;26.87;8.97;;;9.10;95.80;;;;;;5062556;28;20024;-79
2021/05/28 04:38:14;;;;;;;19.27;9.40;;;9.10;95.80;;;;;;5062773;28;20025;-80
2021/05/28 04:40:40;;;;;;;20.07;9.57;;;9.10;95.90;;;;;;5057200;28;20048;-79
2021/05/28 04:43:06;;;;;;;20.07;8.13;;;9.10;95.80;;;;;;5069254;28;20055;-79
2021/05/28 04:45:32;;;;;;;18.33;8.00;;;9.20;95.80;;;;;;5063359;28;20056;-79
2021/05/28 04:47:57;;;;;;;19.33;8.60;;;9.20;95.80;;;;;;5052163;28;20025;-79
2021/05/28 04:50:30;;;;;;;15.67;7.40;;;9.20;95.80;;;;;;5052544;28;20029;-79
2021/05/28 04:53:00;;;;;;;17.40;7.20;;;9.30;95.80;;;;;;5052628;28;20470;-79
2021/05/28 04:55:27;;;;;;;19.20;6.77;;;9.30;95.70;;;;;;5053464;28;20025;-81
2021/05/28 04:57:53;;;;;;;16.43;7.47;;;9.30;95.60;;;;;;5052827;28;20067;-80
2021/05/28 05:00:20;;;;;;;23.83;7.13;;;9.30;95.80;;;;;;5036163;28;20025;-80
2021/05/28 05:02:46;;;;;;;15.50;6.73;;;9.30;95.50;;;;;;5052646;28;20048;-80
2021/05/28 05:05:13;;;;;;;18.83;7.33;;;9.40;95.50;;;;;;5052871;28;20469;-74
2021/05/28 05:07:38;;;;;;;21.57;7.67;;;9.40;95.50;;;;;;5053148;28;20037;-74
2021/05/28 05:10:05;;;;;;;25.23;7.50;;;9.50;95.50;;;;;;5052828;28;20029;-75
2021/05/28 05:12:31;;;;;;;25.20;8.20;;;9.40;95.50;;;;;;5054539;28;20032;-74
2021/05/28 05:14:56;;;;;;;19.57;7.23;;;9.40;95.40;;;;;;5073136;28;20036;-74
2021/05/28 05:17:22;;;;;;;17.70;8.50;;;9.40;95.40;;;;;;5073164;28;20052;-74
2021/05/28 05:19:48;;;;;;;14.83;7.60;;;9.40;95.30;;;;;;5038333;28;20074;-75
2021/05/28 05:22:13;;;;;;;15.87;7.90;;;9.30;95.30;;;;;;5055924;28;20372;-73
2021/05/28 05:24:39;;;;;;;14.23;8.20;;;9.40;95.30;;;;;;5055647;28;20055;-79
2021/05/28 05:27:05;;;;;;;15.33;6.77;;;9.40;95.30;;;;;;5072621;28;20035;-78
2021/05/28 05:29:31;;;;;;;16.77;7.03;;;9.40;95.40;;;;;;5055926;28;20039;-78
2021/05/28 05:31:57;;;;;;;15.40;6.87;;;9.30;95.40;;;;;;5072386;28;20033;-78
2021/05/28 05:34:22;;;;;;;17.23;6.80;;;9.50;95.50;;;;;;5072341;28;20032;-78
2021/05/28 05:36:48;;;;;;;10.63;6.60;;;9.50;95.40;;;;;;5072246;28;20044;-78
2021/05/28 05:39:14;;;;;;;13.53;6.20;;;9.60;95.40;;;;;;5073476;28;20033;-79
2021/05/28 05:41:39;;;;;;;9.90;6.07;;;9.60;95.30;;;;;;5073489;28;20031;-79
2021/05/28 05:44:06;;;;;;;12.23;6.97;;;9.70;95.40;;;;;;5055877;28;20024;-79
2021/05/28 05:46:31;;;;;;;10.63;6.77;;;9.70;95.40;;;;;;5073316;28;20029;-80
2021/05/28 05:48:57;;;;;;;9.90;6.50;;;9.80;95.40;;;;;;5055471;28;20039;-79
2021/05/28 05:51:22;;;;;;;10.97;6.23;;;9.80;95.40;;;;;;5072308;28;20051;-78
2021/05/28 05:53:48;;;;;;;10.63;6.53;;;9.80;95.40;;;;;;5073387;28;20086;-78
2021/05/28 05:56:14;;;;;;;10.30;5.50;;;9.90;95.30;;;;;;5071908;28;20475;-79
2021/05/28 05:58:41;;;;;;;11.90;7.33;;;9.90;95.30;;;;;;5071840;28;20484;-78
2021/05/28 06:01:07;;;;;;;17.83;6.87;;;10.00;95.30;;;;;;5055723;28;20048;-79
2021/05/28 06:03:33;;;;;;;11.53;5.90;;;10.00;95.30;;;;;;5073174;28;20028;-80
2021/05/28 06:05:58;;;;;;;9.80;6.17;;;10.20;95.30;;;;;;5072999;28;20033;-78
2021/05/28 06:08:24;;;;;;;9.77;6.00;;;10.20;95.20;;;;;;5074974;28;20061;-79
2021/05/28 06:10:50;;;;;;;9.43;5.67;;;10.30;95.10;;;;;;5058956;28;20043;-79
2021/05/28 06:13:15;;;;;;;10.03;5.93;;;10.30;95.10;;;;;;5058716;28;20419;-79
2021/05/28 06:15:41;;;;;;;10.70;5.80;;;10.40;95.10;;;;;;5076868;28;20361;-79
2021/05/28 06:18:06;;;;;;;11.53;6.47;;;10.40;95.00;;;;;;5075914;28;20021;-80
2021/05/28 06:20:32;;;;;;;11.70;7.27;;;10.50;95.00;;;;;;5075699;28;20024;-78
2021/05/28 06:22:59;;;;;;;10.57;6.20;;;10.50;95.00;;;;;;5076794;28;20128;-78
2021/05/28 06:25:24;;;;;;;11.30;6.60;;;10.60;95.00;;;;;;5059390;28;20028;-79
2021/05/28 06:27:50;;;;;;;11.93;6.20;;;10.70;94.90;;;;;;5075549;28;20090;-79
2021/05/28 06:30:16;;;;;;;8.57;5.77;;;10.70;94.90;;;;;;5075575;28;20041;-80
2021/05/28 06:32:42;;;;;;;11.13;6.10;;;10.80;94.80;;;;;;5057947;28;20176;-79
2021/05/28 06:35:08;;;;;;;8.37;5.67;;;10.80;94.60;;;;;;5063347;28;20124;-79
2021/05/28 06:37:34;;;;;;;8.27;5.20;;;10.90;94.50;;;;;;5049950;28;20112;-79
2021/05/28 06:39:59;;;;;;;9.23;5.43;;;10.90;94.60;;;;;;5065176;28;20613;-79
2021/05/28 06:42:25;;;;;;;8.50;5.27;;;11.10;94.60;;;;;;5048228;28;20056;-79
2021/05/28 06:44:51;;;;;;;8.23;5.15;;;11.10;94.60;;;;;;5076421;28;20029;-78
2021/05/28 06:47:17;;;;;;;8.60;5.40;;;11.30;94.50;;;;;;5073158;28;20032;-79
2021/05/28 06:49:43;;;;;;;7.13;4.80;;;11.40;94.40;;;;;;5055379;28;20029;-80
2021/05/28 06:52:10;;;;;;;8.55;5.47;;;11.60;94.30;;;;;;5074819;28;20025;-73
2021/05/28 06:54:36;;;;;;;9.48;5.45;;;11.70;94.00;;;;;;5075368;28;20032;-74
2021/05/28 06:57:02;;;;;;;7.90;5.15;;;11.70;93.60;;;;;;5058532;28;20029;-74
2021/05/28 06:59:28;;;;;;;8.00;5.38;;;11.70;93.50;;;;;;5058541;28;20029;-73
2021/05/28 07:01:55;;;;;;;9.45;4.90;;;11.70;93.20;;;;;;5058947;28;20368;-74
2021/05/28 07:04:21;;;;;;;8.05;4.85;;;11.80;93.20;;;;;;5075100;28;20029;-73
2021/05/28 07:06:46;;;;;;;8.90;5.13;;;11.80;93.00;;;;;;5076158;28;20452;-73
2021/05/28 07:09:12;;;;;;;8.40;5.07;;;11.80;92.90;;;;;;5076260;28;20039;-73
2021/05/28 07:11:37;;;;;;;15.43;4.82;;;11.70;92.60;;;;;;5076368;28;20029;-74
2021/05/28 07:14:04;;;;;;;9.43;4.85;;;11.80;92.50;;;;;;5058343;28;20539;-75
2021/05/28 07:16:30;;;;;;;7.95;4.55;;;11.90;92.40;;;;;;5073589;28;20290;-74
2021/05/28 07:18:56;;;;;;;7.22;4.07;;;11.90;92.30;;;;;;5064750;28;20108;-73
2021/05/28 07:21:25;;;;;;;10.38;5.32;;;11.80;92.10;;;;;;5054958;28;20063;-74
2021/05/28 07:23:50;;;;;;;8.43;4.70;;;11.90;91.80;;;;;;5056161;28;20041;-74
2021/05/28 07:26:17;;;;;;;7.77;5.00;;;11.80;91.60;;;;;;5057549;28;20482;-79
2021/05/28 07:28:43;;;;;;;7.07;4.80;;;11.80;91.50;;;;;;5074375;28;20483;-80
2021/05/28 07:31:09;;;;;;;8.00;5.03;;;11.80;91.50;;;;;;5076020;28;20027;-79
2021/05/28 07:33:35;;;;;;;7.30;4.27;;;11.80;91.50;;;;;;5040970;28;20031;-80
2021/05/28 07:36:01;;;;;;;10.55;4.47;;;11.80;91.50;;;;;;5074245;28;20065;-79
2021/05/28 07:38:26;;;;;;;11.27;5.63;;;11.70;91.50;;;;;;5055334;28;20384;-79
2021/05/28 07:40:52;;;;;;;7.77;4.83;;;11.70;91.40;;;;;;5057687;28;20025;-80
2021/05/28 07:43:18;;;;;;;11.40;5.65;;;11.70;91.40;;;;;;5061828;28;20021;-80
2021/05/28 07:45:49;;;;;;;10.63;6.25;;;11.70;91.40;;;;;;5054105;28;20091;-79
2021/05/28 07:48:14;;;;;;;7.70;5.30;;;11.70;91.40;;;;;;5054168;28;20036;-80
2021/05/28 07:50:46;;;;;;;8.50;5.38;;;11.70;91.40;;;;;;5037333;28;20036;-80
2021/05/28 07:53:17;;;;;;;8.43;5.50;;;11.70;91.50;;;;;;5038358;28;20025;-80
2021/05/28 07:55:43;;;;;;;8.10;5.20;;;11.70;91.50;;;;;;5067097;28;20046;-79
2021/05/28 07:58:09;;;;;;;8.70;5.65;;;11.70;91.40;;;;;;5072237;28;20048;-80
2021/05/28 08:00:35;;;;;;;7.55;4.88;;;11.70;91.40;;;;;;5058259;28;20110;-79
2021/05/28 08:03:01;;;;;;;8.60;5.47;;;11.80;91.40;;;;;;5073681;28;20366;-73
2021/05/28 08:05:27;;;;;;;7.57;4.70;;;11.80;91.40;;;;;;5049145;28;20025;-73
2021/05/28 08:07:54;;;;;;;9.02;5.45;;;11.80;91.50;;;;;;5057499;28;20068;-73
2021/05/28 08:10:21;;;;;;;9.90;5.95;;;11.80;91.60;;;;;;5073519;28;20041;-73
2021/05/28 08:12:48;;;;;;;10.13;5.88;;;11.90;91.60;;;;;;5071905;28;20511;-73
2021/05/28 08:15:14;;;;;;;9.18;5.50;;;11.90;91.60;;;;;;5054008;28;20048;-74
2021/05/28 08:17:39;;;;;;;9.80;5.82;;;11.90;91.70;;;;;;5055411;28;20028;-74
2021/05/28 08:20:06;;;;;;;8.27;5.55;;;11.90;91.70;;;;;;5037081;28;20024;-73
2021/05/28 08:22:32;;;;;;;9.20;6.20;;;12.00;91.70;;;;;;5054945;28;20103;-73
2021/05/28 08:24:57;;;;;;;9.60;5.93;;;12.00;91.40;;;;;;5037134;28;20055;-74
2021/05/28 08:27:23;;;;;;;9.73;6.40;;;12.10;91.50;;;;;;5053523;28;20112;-73
2021/05/28 08:29:48;;;;;;;8.13;5.43;;;12.20;91.60;;;;;;5036524;28;20071;-74
2021/05/28 08:32:15;;;;;;;10.32;6.10;;;12.20;91.50;;;;;;5066923;28;20484;-74
2021/05/28 08:34:41;;;;;;;8.65;5.22;;;12.30;91.50;;;;;;5069920;28;20063;-74
2021/05/28 08:37:06;;;;;;;9.13;5.13;;;12.30;91.50;;;;;;5053019;28;20071;-74
2021/05/28 08:39:32;;;;;;;7.55;4.32;;;12.40;91.50;;;;;;5070002;28;20056;-73
2021/05/28 08:41:59;;;;;;;9.63;4.90;;;12.50;91.50;;;;;;5054235;28;20112;-74
2021/05/28 08:44:26;;;;;;;8.95;5.00;;;12.70;91.30;;;;;;5070282;28;20027;-73
2021/05/28 08:46:53;;;;;;;8.63;4.95;;;12.70;91.30;;;;;;5053219;28;20049;-74
2021/05/28 08:49:20;;;;;;;8.60;4.45;;;12.80;91.10;;;;;;5036433;28;20029;-74
2021/05/28 08:51:46;;;;;;;8.93;5.70;;;12.90;91.00;;;;;;5053061;28;20033;-73
2021/05/28 08:54:12;;;;;;;6.82;4.38;;;13.00;90.90;;;;;;5053367;28;20021;-73
2021/05/28 08:56:38;;;;;;;10.07;5.55;;;13.00;90.80;;;;;;5036485;28;20029;-73
2021/05/28 08:59:05;;;;;;;11.30;4.93;;;13.10;90.80;;;;;;5052825;28;20473;-74
2021/05/28 09:01:31;;;;;;;8.93;5.05;;;13.20;90.60;;;;;;5053449;28;20032;-73
2021/05/28 09:03:59;;;;;;;7.47;4.03;;;13.30;90.60;;;;;;5069471;28;20028;-73
2021/05/28 09:06:25;;;;;;;6.50;3.78;;;13.40;90.50;;;;;;5069526;28;20450;-73
2021/05/28 09:08:50;;;;;;;8.63;4.25;;;13.50;90.30;;;;;;5069434;28;20052;-74
2021/05/28 09:11:18;;;;;;;7.63;4.80;;;13.60;90.00;;;;;;5069405;28;20033;-74
2021/05/28 09:13:43;;;;;;;6.18;3.67;;;13.70;89.90;;;;;;5052521;28;20021;-73
2021/05/28 09:16:09;;;;;;;6.60;3.67;;;13.80;89.80;;;;;;5052060;28;20047;-74
2021/05/28 09:18:47;;;;;;;6.63;3.80;;;13.90;89.30;;;;;;5052634;28;20102;-73
2021/05/28 09:21:28;;;;;;;6.70;3.78;;;14.00;88.20;;;;;;5056474;28;20507;-73
2021/05/28 09:23:54;;;;;;;6.80;3.17;;;14.10;88.40;;;;;;5076319;28;20041;-73
2021/05/28 09:26:20;;;;;;;6.18;3.72;;;14.20;88.00;;;;;;5060921;28;20097;-73
2021/05/28 09:28:48;;;;;;;4.85;2.83;;;14.20;87.30;;;;;;5059514;28;20029;-74
2021/05/28 09:31:16;;;;;;;6.07;3.08;;;14.40;87.20;;;;;;5058691;28;20053;-74
2021/05/28 09:33:48;;;;;;;5.75;3.22;;;14.50;87.00;;;;;;5061717;28;20029;-74
2021/05/28 09:36:16;;;;;;;5.55;3.50;;;14.60;86.20;;;;;;5066558;28;20059;-73
2021/05/28 09:39:08;;;;;;;7.40;2.90;;;14.70;86.30;;;;;;5062883;28;20441;-73
2021/05/28 09:41:42;;;;;;;6.57;3.60;;;14.90;85.90;;;;;;5060119;28;20021;-73
2021/05/28 09:44:07;;;;;;;;;;;15.00;85.20;;;;;;5062399;28;20021;-74
2021/05/28 09:46:33;;;;;;;6.30;3.22;;;15.10;83.80;;;;;;5061165;28;20410;-73
2021/05/28 09:49:10;;;;;;;6.00;3.50;;;15.20;84.00;;;;;;5037709;28;20520;-73
2021/05/28 09:51:36;;;;;;;4.15;2.25;;;15.30;83.60;;;;;;5071703;28;20043;-74
2021/05/28 09:54:13;;;;;;;7.55;3.15;;;15.40;83.50;;;;;;5054397;28;20380;-73
2021/05/28 09:56:39;;;;;;;5.95;3.00;;;15.50;82.80;;;;;;5071562;28;20029;-73
2021/05/28 09:59:07;;;;;;;7.00;4.07;;;15.60;81.60;;;;;;5055588;28;20086;-73
2021/05/28 10:01:52;;;;;;;4.15;2.67;;;15.70;80.20;;;;;;5073142;28;20472;-73
2021/05/28 10:04:18;;;;;;;5.28;2.60;;;15.80;80.40;;;;;;5071989;28;20372;-73
2021/05/28 10:06:44;;;;;;;4.68;2.70;;;15.90;80.40;;;;;;5055135;28;20036;-72
2021/05/28 10:09:11;;;;;;;6.43;2.90;;;16.00;79.30;;;;;;5072772;28;20036;-74
2021/05/28 10:11:39;;;;;;;6.38;2.92;;;16.10;78.70;;;;;;5055161;28;20395;-73
2021/05/28 10:14:06;;;;;;;6.90;3.03;;;16.20;78.70;;;;;;5055129;28;20036;-73
2021/05/28 10:16:32;;;;;;;5.78;2.83;;;16.30;78.60;;;;;;5067007;28;20033;-74
2021/05/28 10:18:58;;;;;;;4.93;2.60;;;16.40;78.50;;;;;;5052186;28;20029;-74
2021/05/28 10:21:25;;;;;;;6.25;2.70;;;16.50;77.80;;;;;;5051927;28;20078;-73
2021/05/28 10:23:52;;;;;;;7.65;3.30;;;16.60;77.30;;;;;;5061136;28;20053;-73
2021/05/28 10:26:25;;;;;;;6.55;2.92;;;16.70;76.50;;;;;;5054117;28;20029;-73
2021/05/28 10:28:51;;;;;;;4.07;2.42;;;16.90;76.20;;;;;;5053023;28;20419;-72
2021/05/28 10:31:17;;;;;;;4.82;2.47;;;17.10;75.30;;;;;;5051583;28;20029;-73
2021/05/28 10:33:52;;;;;;;5.88;3.17;;;17.30;75.00;;;;;;5053014;28;20025;-75
2021/05/28 10:36:43;;;;;;;4.22;2.47;;;17.60;73.60;;;;;;5051537;28;20031;-74
2021/05/28 10:39:11;;;;;;;5.57;2.40;;;17.70;72.20;;;;;;5060626;28;20403;-72
2021/05/28 10:41:39;;;;;;;4.10;1.60;;;18.10;73.10;;;;;;5070388;28;20027;-73
2021/05/28 10:44:10;;;;;;;4.47;2.15;;;18.30;71.70;;;;;;5056706;28;20078;-74
2021/05/28 10:46:36;;;;;;;3.13;1.60;;;18.60;71.30;;;;;;5063676;28;20049;-75
2021/05/28 10:49:07;;;;;;;5.32;2.22;;;18.70;70.20;;;;;;5060188;28;20025;-73
2021/05/28 10:51:33;;;;;;;5.22;2.13;;;18.80;69.80;;;;;;5063237;28;20017;-74
2021/05/28 10:53:58;;;;;;;3.47;2.00;;;18.90;69.50;;;;;;5067731;28;20348;-81
2021/05/28 10:56:36;;;;;;;3.55;1.95;;;19.00;68.90;;;;;;5070678;28;20029;-79
2021/05/28 10:59:14;;;;;;;4.80;2.25;;;19.20;68.60;;;;;;5059970;28;20025;-80
2021/05/28 11:01:43;;;;;;;5.50;2.10;;;19.30;68.90;;;;;;5062135;28;20013;-79
2021/05/28 11:04:13;;;;;;;4.22;1.75;;;19.50;68.30;;;;;;5056233;28;20016;-78
2021/05/28 11:06:54;;;;;;;3.70;1.42;;;19.70;67.80;;;;;;5038740;28;20025;-78
2021/05/28 11:09:39;;;;;;;3.28;1.58;;;19.90;66.30;;;;;;5054643;28;20455;-79
2021/05/28 11:12:09;;;;;;;4.82;2.00;;;20.00;65.50;;;;;;5055058;28;20503;-79
2021/05/28 11:14:37;;;;;;;2.85;1.40;;;20.20;65.90;;;;;;5054885;28;20033;-80
2021/05/28 11:17:06;;;;;;;3.25;1.67;;;20.30;65.10;;;;;;5038454;28;20033;-74
2021/05/28 11:19:34;;;;;;;4.88;1.40;;;20.50;64.10;;;;;;5054655;28;20076;-80
2021/05/28 11:22:04;;;;;;;3.05;1.40;;;20.60;63.40;;;;;;5056170;28;20020;-80
2021/05/28 11:24:45;;;;;;;4.55;1.80;;;20.90;62.80;;;;;;5054332;28;20048;-79
2021/05/28 11:27:13;;;;;;;5.20;1.85;;;21.10;61.50;;;;;;5061484;28;20093;-80
2021/05/28 11:29:39;;;;;;;3.03;1.70;;;21.30;61.50;;;;;;5055730;28;20025;-77
2021/05/28 11:32:34;;;;;;;2.92;1.52;;;21.40;60.80;;;;;;5055689;28;20036;-80
2021/05/28 11:35:14;;;;;;;3.00;1.60;;;21.60;59.10;;;;;;5054720;28;20078;-80
2021/05/28 11:37:42;;;;;;;2.20;1.10;;;21.80;58.60;;;;;;5055322;28;20039;-79
2021/05/28 11:40:14;;;;;;;1.77;0.80;;;22.00;58.80;;;;;;5054563;28;20516;-81
2021/05/28 11:42:41;;;;;;;3.00;0.90;;;22.20;57.70;;;;;;5054343;28;20071;-79
2021/05/28 11:45:12;;;;;;;2.30;0.70;;;22.40;57.50;;;;;;5055656;28;20504;-81
2021/05/28 11:47:38;;;;;;;1.83;0.63;;;22.60;56.40;;;;;;5054411;28;20105;-73
2021/05/28 11:50:07;;;;;;;2.67;0.50;;;22.80;56.00;;;;;;5037642;28;20444;-73
2021/05/28 11:52:33;;;;;;;1.42;0.70;;;22.90;55.00;;;;;;5055495;28;20025;-73
2021/05/28 11:55:08;;;;;;;1.95;0.60;;;23.10;54.10;;;;;;5055386;28;20021;-74
2021/05/28 11:57:35;;;;;;;2.47;0.60;;;23.40;52.80;;;;;;5055227;28;20033;-73
2021/05/28 12:00:08;;;;;;;1.27;0.60;;;23.60;52.30;;;;;;5054385;28;20017;-74
2021/05/28 12:02:52;;;;;;;1.23;0.63;;;23.80;51.60;;;;;;5055348;28;20013;-74
2021/05/28 12:05:26;;;;;;;2.35;0.80;;;24.00;51.10;;;;;;5053450;28;20358;-74
2021/05/28 12:08:01;;;;;;;2.47;0.82;;;24.00;50.20;;;;;;5055038;28;20110;-73
2021/05/28 12:10:28;;;;;;;2.65;0.63;;;24.20;50.50;;;;;;5055113;28;20024;-81
2021/05/28 12:13:05;;;;;;;1.90;0.75;;;24.30;50.30;;;;;;5055033;28;20393;-78
2021/05/28 12:15:35;;;;;;;2.20;0.75;;;24.50;49.60;;;;;;5037729;28;20139;-78
2021/05/28 12:18:17;;;;;;;2.50;0.75;;;24.70;49.50;;;;;;5053652;28;20176;-79
2021/05/28 12:20:47;;;;;;;3.45;0.85;;;24.90;49.70;;;;;;5055058;28;20159;-79
2021/05/28 12:23:19;;;;;;;3.47;0.70;;;25.10;48.50;;;;;;5054713;28;20397;-79
2021/05/28 12:25:53;;;;;;;3.05;0.60;;;25.30;47.90;;;;;;5055113;28;20021;-80
2021/05/28 12:28:25;;;;;;;1.90;0.70;;;25.60;47.10;;;;;;5053260;28;20029;-81
2021/05/28 12:30:56;;;;;;;2.38;0.70;;;25.70;46.90;;;;;;5074258;28;20375;-81
2021/05/28 12:33:26;;;;;;;2.42;0.60;;;25.90;46.10;;;;;;5074400;28;20040;-85
2021/05/28 12:35:54;;;;;;;3.13;0.65;;;26.10;45.80;;;;;;5072642;28;20075;-81
2021/05/28 12:38:23;;;;;;;1.77;0.50;;;26.30;45.40;;;;;;5074484;28;20023;-79
2021/05/28 12:40:50;;;;;;;2.05;0.75;;;26.50;45.60;;;;;;5075024;28;20024;-79
2021/05/28 12:43:36;;;;;;;1.52;0.55;;;26.50;44.60;;;;;;5074721;28;20046;-82
2021/05/28 12:46:02;;;;;;;3.53;0.60;;;26.70;43.50;;;;;;5054470;28;20065;-78